Time;durP1;ratioP1;P1;durP2;ratioP2;P2;SDS_P1;SDS_P2;PMS_P1;PMS_P2;Temp;Humidity;BMP_temperature;BMP_pressure;BME280_temperature;BME280_humidity;BME280_pressure;Samples;Min_cycle;Max_cycle;Signal;HPM_P1;HPM_P2
2022/12/04 00:01:13;;;;;;;;;;;1.30;86.20;;;;;;4975369;28;1079;-87
2022/12/04 00:03:41;;;;;;;;;;;1.50;86.40;;;;;;4976412;28;1108;-87
2022/12/04 00:06:10;;;;;;;;;;;1.50;85.10;;;;;;4975525;28;1903;-87
2022/12/04 00:08:39;;;;;;;;;;;1.30;85.90;;;;;;4974864;28;1368;-87
2022/12/04 00:11:07;;;;;;;;;;;1.40;86.00;;;;;;4979147;28;1083;-86
2022/12/04 00:13:35;;;;;;;;;;;1.70;86.30;;;;;;4973429;28;1403;-86
2022/12/04 00:16:04;;;;;;;;;;;1.30;86.00;;;;;;4974939;28;1101;-85
2022/12/04 00:18:32;;;;;;;;;;;1.50;86.80;;;;;;4962699;28;1397;-86
2022/12/04 00:20:59;;;;;;;;;;;1.40;86.00;;;;;;4970158;28;1570;-85
2022/12/04 00:23:28;;;;;;;;;;;1.50;86.40;;;;;;4969727;28;1074;-86
2022/12/04 00:25:59;;;;;;;;;;;1.40;86.20;;;;;;4973254;28;1904;-84
2022/12/04 00:28:27;;;;;;;;;;;1.30;86.60;;;;;;4963567;28;1456;-86
2022/12/04 00:30:54;;;;;;;;;;;1.40;85.60;;;;;;4963195;29;1852;-86
2022/12/04 00:33:22;;;;;;;;;;;1.40;86.30;;;;;;4962582;28;1318;-88
2022/12/04 00:35:56;;;;;;;;;;;1.40;85.90;;;;;;4970725;28;1039;-87
2022/12/04 00:38:24;;;;;;;;;;;1.30;87.10;;;;;;4963306;28;1305;-84
2022/12/04 00:40:53;;;;;;;;;;;1.30;86.00;;;;;;4963512;29;1102;-84
2022/12/04 00:43:21;;;;;;;;;;;1.40;86.80;;;;;;4976608;28;1556;-87
2022/12/04 00:45:49;;;;;;;;;;;1.40;86.60;;;;;;4967205;28;1910;-87
2022/12/04 00:48:17;;;;;;;;;;;1.40;86.10;;;;;;4962812;28;1504;-87
2022/12/04 00:50:45;;;;;;;;;;;1.50;86.10;;;;;;4963821;29;1081;-86
2022/12/04 00:53:12;;;;;;;;;;;1.40;86.10;;;;;;4963862;29;994;-88
2022/12/04 00:55:41;;;;;;;;;;;1.40;86.60;;;;;;4963487;29;1633;-88
2022/12/04 00:58:10;;;;;;;;;;;1.40;86.70;;;;;;4963658;28;1285;-87
2022/12/04 01:00:38;;;;;;;;;;;1.40;87.00;;;;;;4969493;28;1014;-87
2022/12/04 01:03:07;;;;;;;;;;;1.40;86.80;;;;;;4974951;28;1246;-87
2022/12/04 01:05:38;;;;;;;;;;;1.30;86.80;;;;;;4972269;28;1655;-87
2022/12/04 01:08:05;;;;;;;;;;;1.50;87.20;;;;;;4962960;28;1903;-87
2022/12/04 01:10:33;;;;;;;;;;;1.60;86.80;;;;;;4963057;29;994;-87
2022/12/04 01:13:01;;;;;;;;;;;1.50;86.80;;;;;;4964056;29;1515;-86
2022/12/04 01:15:30;;;;;;;;;;;1.60;86.20;;;;;;4966780;28;1474;-86
2022/12/04 01:17:58;;;;;;;;;;;1.50;86.60;;;;;;4979545;28;1379;-88
2022/12/04 01:20:25;;;;;;;;;;;1.50;86.20;;;;;;4976327;28;1614;-83
2022/12/04 01:22:53;;;;;;;;;;;1.50;86.80;;;;;;4970857;28;1443;-84
2022/12/04 01:25:21;;;;;;;;;;;1.30;87.10;;;;;;4973118;28;1375;-86
2022/12/04 01:27:48;;;;;;;;;;;1.40;87.50;;;;;;4968693;28;1891;-83
2022/12/04 01:30:16;;;;;;;;;;;1.40;87.30;;;;;;4970135;28;1501;-85
2022/12/04 01:32:45;;;;;;;;;;;1.40;87.00;;;;;;4965944;28;994;-86
2022/12/04 01:35:13;;;;;;;;;;;1.50;87.60;;;;;;4973921;28;1557;-87
2022/12/04 01:37:40;;;;;;;;;;;1.40;86.70;;;;;;4970949;28;1269;-86
2022/12/04 01:40:12;;;;;;;;;;;1.60;86.80;;;;;;4970691;28;1107;-89
2022/12/04 01:42:40;;;;;;;;;;;1.40;87.80;;;;;;4967399;28;1594;-87
2022/12/04 01:45:26;;;;;;;;;;;1.30;87.80;;;;;;4962709;29;1391;-89
2022/12/04 01:47:58;;;;;;;;;;;1.30;88.60;;;;;;4963344;28;1883;-89
2022/12/04 01:50:25;;;;;;;;;;;1.40;88.80;;;;;;4963206;29;1073;-88
2022/12/04 01:52:53;;;;;;;;;;;1.40;87.40;;;;;;4962995;29;1586;-87
2022/12/04 01:55:21;;;;;;;;;;;1.50;87.90;;;;;;4966811;28;1428;-89
2022/12/04 01:57:48;;;;;;;;;;;1.40;88.00;;;;;;4968018;28;1516;-88
2022/12/04 02:00:16;;;;;;;;;;;1.40;88.20;;;;;;4967845;28;1578;-88
2022/12/04 02:02:45;;;;;;;;;;;1.30;88.50;;;;;;4975246;28;1065;-89
2022/12/04 02:05:15;;;;;;;;;;;1.30;89.00;;;;;;4969910;28;1436;-89
2022/12/04 02:07:45;;;;;;;;;;;1.30;89.30;;;;;;4979234;28;1989;-89
2022/12/04 02:10:13;;;;;;;;;;;1.60;89.40;;;;;;4982709;28;1412;-88
2022/12/04 02:18:15;;;;;;;;;;;1.40;89.80;;;;;;4953204;28;1369;-89
2022/12/04 02:20:47;;;;;;;;;;;1.40;89.60;;;;;;4932690;29;970;-87
2022/12/04 02:23:29;;;;;;;;;;;1.40;89.80;;;;;;4933424;29;1038;-86
2022/12/04 02:26:01;;;;;;;;;;;1.40;89.60;;;;;;4922259;29;1594;-87
2022/12/04 02:28:32;;;;;;;;;;;1.30;89.90;;;;;;4923529;29;1982;-87
2022/12/04 02:31:01;;;;;;;;;;;1.70;90.10;;;;;;4924078;29;990;-87
2022/12/04 02:33:31;;;;;;;;;;;1.60;90.00;;;;;;4923724;29;1725;-88
2022/12/04 02:36:01;;;;;;;;;;;1.50;88.90;;;;;;4922745;29;1109;-88
2022/12/04 02:38:32;;;;;;;;;;;1.50;89.60;;;;;;4927159;29;1637;-86
2022/12/04 02:41:04;;;;;;;;;;;1.60;90.00;;;;;;4932457;29;1550;-86
2022/12/04 02:43:38;;;;;;;;;;;1.60;90.20;;;;;;4937049;29;1560;-86
2022/12/04 02:46:09;;;;;;;;;;;1.30;90.00;;;;;;4923000;29;1109;-85
2022/12/04 02:48:39;;;;;;;;;;;1.50;90.10;;;;;;4940530;29;1918;-87
2022/12/04 02:51:07;;;;;;;;;;;1.40;90.00;;;;;;4941943;29;1428;-86
2022/12/04 02:53:37;;;;;;;;;;;1.30;90.20;;;;;;4936194;29;1070;-87
2022/12/04 02:56:06;;;;;;;;;;;1.40;90.20;;;;;;4937911;29;966;-87
2022/12/04 02:58:39;;;;;;;;;;;1.70;90.10;;;;;;4932918;29;1549;-87
2022/12/04 03:01:18;;;;;;;;;;;1.50;90.00;;;;;;4927815;29;1007;-88
2022/12/04 03:03:49;;;;;;;;;;;1.50;90.20;;;;;;4921804;29;1074;-88
2022/12/04 03:06:17;;;;;;;;;;;1.50;89.70;;;;;;4926977;29;1073;-88
2022/12/04 03:08:46;;;;;;;;;;;1.50;90.20;;;;;;4923742;29;1907;-88
2022/12/04 03:11:14;;;;;;;;;;;1.60;90.00;;;;;;4922076;29;1108;-88
2022/12/04 03:13:46;;;;;;;;;;;1.40;89.40;;;;;;4932102;29;1093;-87
2022/12/04 03:16:15;;;;;;;;;;;1.40;90.30;;;;;;4929925;29;1169;-87
2022/12/04 03:18:45;;;;;;;;;;;1.60;90.30;;;;;;4938913;29;1652;-87
2022/12/04 03:21:14;;;;;;;;;;;1.70;90.10;;;;;;4946955;29;1713;-87
2022/12/04 03:23:44;;;;;;;;;;;1.50;90.20;;;;;;4959191;29;1072;-87
2022/12/04 03:26:14;;;;;;;;;;;1.50;90.30;;;;;;4949935;29;1240;-87
2022/12/04 03:28:47;;;;;;;;;;;1.50;90.30;;;;;;4960074;28;1957;-88
2022/12/04 03:31:16;;;;;;;;;;;1.60;90.20;;;;;;4946798;29;974;-87
2022/12/04 03:33:46;;;;;;;;;;;1.70;90.60;;;;;;4946359;29;1531;-88
2022/12/04 03:36:15;;;;;;;;;;;1.40;90.60;;;;;;4946093;29;990;-88
2022/12/04 03:38:46;;;;;;;;;;;1.50;90.30;;;;;;4945139;29;1399;-88
2022/12/04 03:41:17;;;;;;;;;;;1.20;90.70;;;;;;4944612;29;1649;-88
2022/12/04 03:43:49;;;;;;;;;;;1.40;90.70;;;;;;4945096;29;1112;-86
2022/12/04 03:46:22;;;;;;;;;;;1.40;90.50;;;;;;4955870;29;1619;-86
2022/12/04 03:48:53;;;;;;;;;;;1.50;90.50;;;;;;4951395;29;1907;-86
2022/12/04 03:51:24;;;;;;;;;;;1.50;90.60;;;;;;4944566;29;1525;-88
2022/12/04 03:53:54;;;;;;;;;;;1.40;90.60;;;;;;4949021;29;1399;-89
2022/12/04 03:56:23;;;;;;;;;;;1.40;90.80;;;;;;4951547;29;1022;-88
2022/12/04 03:58:55;;;;;;;;;;;1.30;91.00;;;;;;4946202;29;1217;-87
2022/12/04 04:01:23;;;;;;;;;;;1.40;90.70;;;;;;4946018;29;1505;-87
2022/12/04 04:03:53;;;;;;;;;;;1.40;90.60;;;;;;4945101;29;1034;-87
2022/12/04 04:06:22;;;;;;;;;;;1.40;90.90;;;;;;4945687;29;1582;-89
2022/12/04 04:08:52;;;;;;;;;;;1.50;90.70;;;;;;4944831;29;1911;-86
2022/12/04 04:11:22;;;;;;;;;;;1.60;90.80;;;;;;4945808;29;1029;-87
2022/12/04 04:25:02;;;;;;;;;;;1.20;91.10;;;;;;4962283;29;1296;-88
2022/12/04 04:27:30;;;;;;;;;;;1.50;91.20;;;;;;4943193;29;1912;-87
2022/12/04 04:29:59;;;;;;;;;;;1.60;90.70;;;;;;4943341;29;1068;-87
2022/12/04 04:32:30;;;;;;;;;;;1.80;90.90;;;;;;4943991;29;1407;-89
2022/12/04 04:35:01;;;;;;;;;;;1.40;91.20;;;;;;4944608;29;1018;-89
2022/12/04 04:37:34;;;;;;;;;;;1.50;91.10;;;;;;4944536;29;1288;-88
2022/12/04 04:40:06;;;;;;;;;;;1.70;90.90;;;;;;4945123;29;1673;-87
2022/12/04 04:42:36;;;;;;;;;;;1.50;91.10;;;;;;4944679;29;1455;-88
2022/12/04 04:45:08;;;;;;;;;;;1.50;91.10;;;;;;4953354;29;1002;-88
2022/12/04 04:47:38;;;;;;;;;;;1.50;91.20;;;;;;4954645;28;1379;-87
2022/12/04 04:50:07;;;;;;;;;;;1.50;91.20;;;;;;4944365;29;2002;-89
2022/12/04 04:52:35;;;;;;;;;;;1.60;90.90;;;;;;4943176;29;1050;-89
2022/12/04 04:55:04;;;;;;;;;;;1.60;91.10;;;;;;4943254;29;971;-89
2022/12/04 04:57:34;;;;;;;;;;;1.40;91.20;;;;;;4943085;29;1300;-88
2022/12/04 05:00:04;;;;;;;;;;;1.70;91.10;;;;;;4952652;28;1401;-89
2022/12/04 05:02:33;;;;;;;;;;;1.60;90.80;;;;;;4960181;28;1635;-88
2022/12/04 05:05:01;;;;;;;;;;;1.60;91.00;;;;;;4942518;29;1610;-89
2022/12/04 05:07:29;;;;;;;;;;;1.60;90.90;;;;;;4942099;29;1085;-87
2022/12/04 05:09:56;;;;;;;;;;;1.60;90.70;;;;;;4942143;29;1910;-87
2022/12/04 05:12:25;;;;;;;;;;;1.80;90.80;;;;;;4942480;29;1569;-87
2022/12/04 05:14:52;;;;;;;;;;;1.50;91.00;;;;;;4946923;29;1602;-88
2022/12/04 05:17:20;;;;;;;;;;;1.60;91.10;;;;;;4941575;29;1250;-87
2022/12/04 05:19:55;;;;;;;;;;;1.80;91.00;;;;;;4941230;29;1182;-87
2022/12/04 05:22:27;;;;;;;;;;;1.50;91.40;;;;;;4942121;29;1395;-87
2022/12/04 05:24:55;;;;;;;;;;;1.60;91.30;;;;;;4951886;29;1553;-86
2022/12/04 05:27:23;;;;;;;;;;;1.40;91.40;;;;;;4953459;29;975;-87
2022/12/04 05:29:52;;;;;;;;;;;1.50;91.50;;;;;;4940715;29;1985;-87
2022/12/04 05:32:20;;;;;;;;;;;1.60;91.20;;;;;;4940499;29;1022;-87
2022/12/04 05:34:49;;;;;;;;;;;1.70;91.60;;;;;;4943233;29;1080;-87
2022/12/04 05:37:17;;;;;;;;;;;1.60;91.50;;;;;;4957032;29;1633;-88
2022/12/04 05:39:45;;;;;;;;;;;1.50;91.50;;;;;;4960110;29;1304;-88
2022/12/04 05:42:13;;;;;;;;;;;1.40;91.50;;;;;;4954161;29;1086;-87
2022/12/04 05:44:40;;;;;;;;;;;1.30;91.40;;;;;;4956452;29;1530;-87
2022/12/04 05:47:08;;;;;;;;;;;1.50;91.40;;;;;;4953841;29;948;-89
2022/12/04 05:49:36;;;;;;;;;;;1.50;91.20;;;;;;4958821;28;2000;-89
2022/12/04 05:52:06;;;;;;;;;;;1.60;91.10;;;;;;4962871;28;1373;-90
2022/12/04 05:54:33;;;;;;;;;;;1.60;91.40;;;;;;4957554;29;1573;-88
2022/12/04 05:57:01;;;;;;;;;;;1.50;91.00;;;;;;4944710;29;1477;-86
2022/12/04 05:59:29;;;;;;;;;;;1.50;91.10;;;;;;4943064;29;1700;-87
2022/12/04 06:01:56;;;;;;;;;;;1.50;91.20;;;;;;4942871;29;1076;-89
2022/12/04 06:04:24;;;;;;;;;;;1.90;91.20;;;;;;4952284;29;1051;-87
2022/12/04 06:06:52;;;;;;;;;;;1.60;91.00;;;;;;4972580;28;1887;-87
2022/12/04 06:09:21;;;;;;;;;;;1.90;91.40;;;;;;4964848;28;1910;-86
2022/12/04 06:11:49;;;;;;;;;;;1.50;91.60;;;;;;4949031;29;998;-88
2022/12/04 06:14:17;;;;;;;;;;;1.40;91.40;;;;;;4957962;29;1038;-87
2022/12/04 06:16:45;;;;;;;;;;;1.40;91.30;;;;;;4960564;29;1010;-87
2022/12/04 06:19:14;;;;;;;;;;;1.50;91.80;;;;;;4948868;29;1340;-88
2022/12/04 06:21:43;;;;;;;;;;;1.60;91.40;;;;;;4945074;29;1054;-85
2022/12/04 06:24:13;;;;;;;;;;;1.50;91.60;;;;;;4952019;29;1493;-84
2022/12/04 06:26:42;;;;;;;;;;;1.40;91.90;;;;;;4950009;29;1015;-86
2022/12/04 06:29:30;;;;;;;;;;;1.50;92.20;;;;;;4948847;29;1987;-84
2022/12/04 06:31:57;;;;;;;;;;;1.40;91.90;;;;;;4950935;29;1640;-85
2022/12/04 06:34:25;;;;;;;;;;;1.60;92.20;;;;;;4950035;29;1002;-86
2022/12/04 06:36:53;;;;;;;;;;;1.40;91.90;;;;;;4943385;29;986;-85
2022/12/04 06:39:20;;;;;;;;;;;1.30;92.10;;;;;;4943980;29;1531;-85
2022/12/04 06:41:49;;;;;;;;;;;1.30;92.20;;;;;;4947698;29;1376;-87
2022/12/04 06:44:17;;;;;;;;;;;1.40;93.90;;;;;;4944661;29;1129;-86
2022/12/04 06:46:45;;;;;;;;;;;1.20;92.20;;;;;;4952205;29;1010;-87
2022/12/04 06:49:14;;;;;;;;;;;1.40;92.90;;;;;;4958013;28;1879;-86
2022/12/04 06:51:42;;;;;;;;;;;1.10;92.50;;;;;;4955448;29;1074;-86
2022/12/04 06:54:10;;;;;;;;;;;1.10;92.80;;;;;;4950973;29;1562;-88
2022/12/04 06:56:37;;;;;;;;;;;1.10;93.30;;;;;;4947784;29;994;-86
2022/12/04 06:59:07;;;;;;;;;;;1.20;92.80;;;;;;4952208;28;1730;-86
2022/12/04 07:01:35;;;;;;;;;;;1.40;93.10;;;;;;4953252;29;1543;-86
2022/12/04 07:04:03;;;;;;;;;;;1.20;93.10;;;;;;4952417;29;1125;-86
2022/12/04 07:06:32;;;;;;;;;;;1.30;93.00;;;;;;4948490;29;978;-88
2022/12/04 07:09:01;;;;;;;;;;;1.50;93.10;;;;;;4948686;29;1895;-86
2022/12/04 07:11:28;;;;;;;;;;;1.60;92.60;;;;;;4964665;28;1022;-85
2022/12/04 07:13:56;;;;;;;;;;;1.90;92.20;;;;;;4980549;28;1058;-88
2022/12/04 07:16:26;;;;;;;;;;;1.80;92.00;;;;;;4957478;29;990;-86
2022/12/04 07:18:55;;;;;;;;;;;1.90;92.40;;;;;;4962160;28;1713;-89
2022/12/04 07:21:24;;;;;;;;;;;1.40;92.00;;;;;;4959090;29;1562;-89
2022/12/04 07:23:52;;;;;;;;;;;1.60;92.20;;;;;;4958633;29;1710;-89
2022/12/04 07:26:20;;;;;;;;;;;1.70;92.50;;;;;;4965028;29;1814;-87
2022/12/04 07:28:48;;;;;;;;;;;1.80;92.20;;;;;;4957482;28;1900;-87
2022/12/04 07:31:18;;;;;;;;;;;1.70;92.50;;;;;;4971092;29;1906;-87
2022/12/04 07:33:50;;;;;;;;;;;1.80;92.50;;;;;;4950756;29;1859;-87
2022/12/04 07:36:19;;;;;;;;;;;1.80;92.60;;;;;;4958922;29;1629;-87
2022/12/04 07:38:46;;;;;;;;;;;1.90;92.10;;;;;;4969046;28;1509;-89
2022/12/04 07:41:15;;;;;;;;;;;1.90;92.00;;;;;;4971781;29;1305;-90
2022/12/04 07:43:43;;;;;;;;;;;1.80;92.30;;;;;;4951746;29;1515;-88
2022/12/04 07:46:12;;;;;;;;;;;1.80;92.10;;;;;;4952751;29;1018;-88
2022/12/04 07:48:39;;;;;;;;;;;2.00;92.50;;;;;;4949622;29;1760;-86
2022/12/04 07:51:10;;;;;;;;;;;1.80;92.20;;;;;;4949766;29;1887;-89
2022/12/04 07:53:38;;;;;;;;;;;1.80;92.50;;;;;;4952655;29;1473;-88
2022/12/04 07:56:06;;;;;;;;;;;1.80;92.50;;;;;;4951349;29;1062;-87
2022/12/04 07:58:34;;;;;;;;;;;2.00;92.40;;;;;;4951948;29;1750;-87
2022/12/04 08:01:08;;;;;;;;;;;2.00;92.20;;;;;;4954546;29;1661;-88
2022/12/04 08:03:36;;;;;;;;;;;2.10;92.20;;;;;;4945156;29;1576;-90
2022/12/04 08:06:14;;;;;;;;;;;1.90;92.20;;;;;;4947571;29;1530;-89
2022/12/04 08:08:49;;;;;;;;;;;2.00;92.30;;;;;;4979246;28;1344;-89
2022/12/04 08:11:18;;;;;;;;;;;2.00;92.40;;;;;;4968509;28;1898;-90
2022/12/04 08:13:46;;;;;;;;;;;2.10;92.00;;;;;;4953349;28;1546;-89
2022/12/04 08:16:15;;;;;;;;;;;2.10;92.20;;;;;;4984806;28;1219;-89
2022/12/04 08:18:48;;;;;;;;;;;2.10;92.10;;;;;;4982196;28;1754;-90
2022/12/04 08:21:20;;;;;;;;;;;2.20;92.20;;;;;;4975599;28;1382;-87
2022/12/04 08:23:50;;;;;;;;;;;2.00;92.30;;;;;;4974019;28;1635;-89
2022/12/04 08:26:18;;;;;;;;;;;2.10;92.40;;;;;;4964635;29;1070;-89
2022/12/04 08:28:45;;;;;;;;;;;2.20;92.30;;;;;;4962786;28;1387;-89
2022/12/04 08:31:14;;;;;;;;;;;2.40;91.80;;;;;;4962814;29;1911;-90
2022/12/04 08:33:43;;;;;;;;;;;2.20;92.10;;;;;;4963532;29;1643;-89
2022/12/04 08:36:12;;;;;;;;;;;2.20;92.30;;;;;;4965014;29;999;-88
2022/12/04 08:38:41;;;;;;;;;;;2.10;92.20;;;;;;4963116;28;1519;-90
2022/12/04 08:41:11;;;;;;;;;;;2.20;92.10;;;;;;4962778;29;1425;-90
2022/12/04 08:43:40;;;;;;;;;;;2.30;92.20;;;;;;4963315;29;1627;-90
2022/12/04 08:49:40;;;;;;;;;;;2.00;92.00;;;;;;4938743;29;1380;-69
2022/12/04 08:52:10;;;;;;;;;;;2.30;92.20;;;;;;4939552;29;1917;-69
2022/12/04 08:54:39;;;;;;;;;;;2.20;92.20;;;;;;4937472;29;1066;-70
2022/12/04 08:57:07;;;;;;;;;;;2.30;92.30;;;;;;4937173;29;1705;-71
2022/12/04 08:59:34;;;;;;;;;;;2.50;92.00;;;;;;4936494;29;1012;-68
2022/12/04 09:02:02;;;;;;;;;;;2.50;91.80;;;;;;4936728;29;1307;-66
2022/12/04 09:04:30;;;;;;;;;;;2.60;91.60;;;;;;4937496;29;988;-69
2022/12/04 09:06:58;;;;;;;;;;;2.60;91.60;;;;;;4936088;29;2016;-68
2022/12/04 09:09:26;;;;;;;;;;;2.70;91.30;;;;;;4937192;29;1075;-70
2022/12/04 09:11:55;;;;;;;;;;;2.60;91.60;;;;;;4937879;29;2008;-67
2022/12/04 09:14:24;;;;;;;;;;;2.90;91.60;;;;;;4939313;29;1327;-67
2022/12/04 09:16:52;;;;;;;;;;;2.80;91.50;;;;;;4937525;29;1098;-66
2022/12/04 09:19:21;;;;;;;;;;;2.80;91.20;;;;;;4936182;29;1102;-68
2022/12/04 09:21:49;;;;;;;;;;;2.70;91.40;;;;;;4935279;29;1042;-68
2022/12/04 09:24:16;;;;;;;;;;;2.70;91.50;;;;;;4936026;29;2199;-66
2022/12/04 09:26:44;;;;;;;;;;;2.70;91.50;;;;;;4934022;29;1169;-68
2022/12/04 09:29:13;;;;;;;;;;;3.00;91.60;;;;;;4934320;29;1012;-68
2022/12/04 09:31:41;;;;;;;;;;;2.80;91.40;;;;;;4936829;29;1907;-67
2022/12/04 09:34:08;;;;;;;;;;;3.10;91.50;;;;;;4937466;29;1394;-68
2022/12/04 09:36:37;;;;;;;;;;;2.90;91.40;;;;;;4936844;29;1080;-67
2022/12/04 09:39:04;;;;;;;;;;;2.80;91.30;;;;;;4937570;29;1669;-67
2022/12/04 09:41:51;;;;;;;;;;;2.90;91.40;;;;;;4937243;29;1127;-68
2022/12/04 09:44:21;;;;;;;;;;;3.00;91.20;;;;;;4936561;29;1378;-69
2022/12/04 09:46:51;;;;;;;;;;;3.00;91.30;;;;;;4936276;29;1079;-68
2022/12/04 09:49:21;;;;;;;;;;;3.00;91.20;;;;;;4952421;29;1689;-66
2022/12/04 09:51:50;;;;;;;;;;;3.20;91.10;;;;;;4955123;29;1993;-67
2022/12/04 09:54:19;;;;;;;;;;;3.20;91.00;;;;;;4955324;28;1242;-67
2022/12/04 09:56:50;;;;;;;;;;;3.10;91.10;;;;;;4955409;29;1071;-67
2022/12/04 09:59:21;;;;;;;;;;;3.10;91.10;;;;;;4955631;29;1006;-69
2022/12/04 10:01:53;;;;;;;;;;;3.20;90.90;;;;;;4956898;29;1031;-67
2022/12/04 10:04:20;;;;;;;;;;;3.20;91.00;;;;;;4955713;29;1072;-65
2022/12/04 10:06:53;;;;;;;;;;;3.20;91.10;;;;;;4954633;29;1109;-67
2022/12/04 10:09:22;;;;;;;;;;;3.30;91.00;;;;;;4956976;29;1018;-67
2022/12/04 10:11:52;;;;;;;;;;;3.30;91.00;;;;;;4955683;29;1985;-67
2022/12/04 10:14:28;;;;;;;;;;;3.20;91.10;;;;;;4954885;29;1693;-66
2022/12/04 10:17:02;;;;;;;;;;;3.40;90.90;;;;;;4954304;29;1107;-67
2022/12/04 10:19:34;;;;;;;;;;;3.40;90.90;;;;;;4955241;29;1728;-67
2022/12/04 10:22:06;;;;;;;;;;;3.40;91.00;;;;;;4954604;28;1291;-67
2022/12/04 10:24:39;;;;;;;;;;;3.50;90.80;;;;;;4954287;29;1376;-67
2022/12/04 10:27:10;;;;;;;;;;;3.50;90.70;;;;;;4954950;29;1079;-67
2022/12/04 10:29:41;;;;;;;;;;;3.50;90.90;;;;;;4954720;29;1753;-66
2022/12/04 10:32:15;;;;;;;;;;;3.40;90.80;;;;;;4954934;28;1902;-68
2022/12/04 10:34:43;;;;;;;;;;;3.70;90.90;;;;;;4954494;29;1022;-71
2022/12/04 10:37:13;;;;;;;;;;;3.50;90.90;;;;;;4954606;29;1194;-71
2022/12/04 10:39:42;;;;;;;;;;;3.50;90.80;;;;;;4954694;29;1054;-71
2022/12/04 10:42:21;;;;;;;;;;;3.20;91.20;;;;;;4953958;28;1283;-70
2022/12/04 10:44:50;;;;;;;;;;;3.40;91.20;;;;;;4952891;29;1122;-70
2022/12/04 10:47:18;;;;;;;;;;;3.50;90.90;;;;;;4953325;29;1076;-66
2022/12/04 10:49:45;;;;;;;;;;;3.60;90.90;;;;;;4951430;29;1551;-68
2022/12/04 10:52:13;;;;;;;;;;;3.60;90.70;;;;;;4953415;28;1903;-69
2022/12/04 10:54:46;;;;;;;;;;;3.50;90.80;;;;;;4954416;29;1673;-69
2022/12/04 10:57:14;;;;;;;;;;;3.60;90.80;;;;;;4953506;29;1479;-67
2022/12/04 10:59:48;;;;;;;;;;;3.60;90.80;;;;;;4954556;29;1181;-68
2022/12/04 11:02:20;;;;;;;;;;;3.60;91.00;;;;;;4953861;28;1782;-68
2022/12/04 11:04:51;;;;;;;;;;;3.60;90.90;;;;;;4954403;29;1079;-69
2022/12/04 11:07:21;;;;;;;;;;;3.60;90.70;;;;;;4954493;29;1020;-67
2022/12/04 11:09:54;;;;;;;;;;;3.60;90.80;;;;;;4954564;29;1272;-67
2022/12/04 11:12:22;;;;;;;;;;;3.80;90.80;;;;;;4954622;28;1903;-66
2022/12/04 11:14:59;;;;;;;;;;;3.70;90.90;;;;;;4954303;29;1688;-67
2022/12/04 11:17:28;;;;;;;;;;;3.60;90.90;;;;;;4954304;29;1022;-67
2022/12/04 11:19:59;;;;;;;;;;;3.40;91.30;;;;;;4952524;29;1424;-67
2022/12/04 11:22:27;;;;;;;;;;;3.50;91.10;;;;;;4954073;28;1440;-66
2022/12/04 11:24:56;;;;;;;;;;;3.50;91.20;;;;;;4954425;29;1289;-66
2022/12/04 11:27:25;;;;;;;;;;;3.50;91.30;;;;;;4953734;29;1031;-66
2022/12/04 11:29:54;;;;;;;;;;;3.60;91.20;;;;;;4952793;29;1421;-68
2022/12/04 11:32:24;;;;;;;;;;;3.70;91.00;;;;;;4955621;29;1994;-66
2022/12/04 11:34:54;;;;;;;;;;;3.60;91.20;;;;;;4954408;29;1101;-66
2022/12/04 11:37:24;;;;;;;;;;;3.50;91.40;;;;;;4954639;29;1051;-68
2022/12/04 11:39:52;;;;;;;;;;;3.50;91.40;;;;;;4954682;29;1054;-68
2022/12/04 11:42:23;;;;;;;;;;;3.70;91.20;;;;;;4953924;28;1256;-65
2022/12/04 11:44:52;;;;;;;;;;;3.70;91.00;;;;;;4953545;29;1114;-68
2022/12/04 11:47:20;;;;;;;;;;;3.60;91.20;;;;;;4953002;29;1120;-67
2022/12/04 11:50:00;;;;;;;;;;;3.80;91.00;;;;;;4955509;28;1061;-68
2022/12/04 11:52:33;;;;;;;;;;;3.70;91.30;;;;;;4957136;28;1907;-65
2022/12/04 11:55:02;;;;;;;;;;;3.70;91.20;;;;;;4954771;29;1704;-65
2022/12/04 11:57:31;;;;;;;;;;;3.70;91.20;;;;;;4957716;29;1011;-67
2022/12/04 12:00:11;;;;;;;;;;;3.60;91.20;;;;;;4957532;29;1307;-66
2022/12/04 12:02:50;;;;;;;;;;;3.80;91.20;;;;;;4957926;28;1260;-67
2022/12/04 12:05:24;;;;;;;;;;;3.70;91.20;;;;;;4956172;29;1038;-66
2022/12/04 12:07:56;;;;;;;;;;;3.80;91.10;;;;;;4956636;29;1066;-66
2022/12/04 12:10:33;;;;;;;;;;;3.80;91.10;;;;;;4959011;29;1103;-66
2022/12/04 12:13:05;;;;;;;;;;;3.60;91.40;;;;;;4956357;28;1993;-67
2022/12/04 12:15:40;;;;;;;;;;;3.80;91.30;;;;;;4957168;29;1174;-65
2022/12/04 12:18:15;;;;;;;;;;;3.80;91.40;;;;;;4956343;29;1481;-67
2022/12/04 12:20:59;;;;;;;;;;;3.70;91.30;;;;;;4956997;29;1157;-66
2022/12/04 12:23:41;;;;;;;;;;;3.80;91.30;;;;;;4956177;28;1315;-66
2022/12/04 12:26:10;;;;;;;;;;;3.90;91.20;;;;;;4955772;29;1079;-66
2022/12/04 12:29:09;;;;;;;;;;;3.70;91.40;;;;;;4954871;29;1636;-66
2022/12/04 12:31:49;;;;;;;;;;;3.80;91.50;;;;;;4877026;29;1869;-65
2022/12/04 12:34:19;;;;;;;;;;;3.80;91.40;;;;;;4942527;29;1846;-66
2022/12/04 12:36:50;;;;;;;;;;;3.90;91.30;;;;;;4955194;29;2028;-67
2022/12/04 12:39:23;;;;;;;;;;;4.00;91.20;;;;;;4957172;29;1146;-68
2022/12/04 12:41:52;;;;;;;;;;;3.80;91.30;;;;;;4957403;29;1103;-71
2022/12/04 12:44:22;;;;;;;;;;;4.10;91.30;;;;;;4957026;29;1837;-66
2022/12/04 12:46:51;;;;;;;;;;;3.90;91.30;;;;;;4955739;29;1732;-67
2022/12/04 12:49:21;;;;;;;;;;;4.00;91.40;;;;;;4956849;29;1156;-68
2022/12/04 12:51:52;;;;;;;;;;;4.00;91.30;;;;;;4956616;29;1391;-68
2022/12/04 12:54:26;;;;;;;;;;;4.20;91.10;;;;;;4956819;29;1906;-67
2022/12/04 12:56:56;;;;;;;;;;;4.20;91.10;;;;;;4954293;29;1487;-67
2022/12/04 12:59:26;;;;;;;;;;;4.00;91.40;;;;;;4956299;29;1162;-67
2022/12/04 13:01:56;;;;;;;;;;;4.10;91.30;;;;;;4954497;28;1115;-67
2022/12/04 13:04:30;;;;;;;;;;;4.20;91.20;;;;;;4957397;29;1289;-66
2022/12/04 13:07:04;;;;;;;;;;;4.20;91.10;;;;;;4958526;29;1082;-69
2022/12/04 13:09:33;;;;;;;;;;;4.10;91.30;;;;;;4958005;29;1606;-66
2022/12/04 13:12:03;;;;;;;;;;;4.10;91.30;;;;;;4956913;28;1288;-69
2022/12/04 13:14:30;;;;;;;;;;;4.20;91.30;;;;;;4956713;29;1903;-67
2022/12/04 13:17:00;;;;;;;;;;;4.20;91.50;;;;;;4959033;29;1067;-67
2022/12/04 13:19:29;;;;;;;;;;;4.20;91.40;;;;;;4958928;29;1645;-65
2022/12/04 13:22:01;;;;;;;;;;;4.20;91.60;;;;;;4962544;28;1291;-66
2022/12/04 13:24:39;;;;;;;;;;;4.20;91.60;;;;;;4961400;29;1158;-66
2022/12/04 13:27:09;;;;;;;;;;;4.20;91.80;;;;;;4965130;29;1015;-67
2022/12/04 13:29:41;;;;;;;;;;;4.40;91.60;;;;;;4962268;29;1308;-68
2022/12/04 13:32:21;;;;;;;;;;;4.20;92.00;;;;;;4963049;28;1376;-68
2022/12/04 13:34:59;;;;;;;;;;;4.10;92.10;;;;;;4961861;29;1083;-66
2022/12/04 13:37:42;;;;;;;;;;;4.10;92.20;;;;;;4963730;29;1705;-67
2022/12/04 13:40:27;;;;;;;;;;;4.30;92.10;;;;;;4960812;29;1455;-67
2022/12/04 13:43:10;;;;;;;;;;;4.50;91.90;;;;;;4961648;28;1518;-66
2022/12/04 13:45:39;;;;;;;;;;;4.30;92.20;;;;;;4962131;29;1113;-66
2022/12/04 13:48:09;;;;;;;;;;;4.20;92.30;;;;;;4960819;29;987;-67
2022/12/04 13:50:38;;;;;;;;;;;4.20;92.50;;;;;;4963308;29;1030;-66
2022/12/04 13:53:06;;;;;;;;;;;4.30;92.50;;;;;;4961396;28;1910;-66
2022/12/04 13:55:35;;;;;;;;;;;4.50;92.60;;;;;;4962697;29;1095;-65
2022/12/04 13:58:04;;;;;;;;;;;4.40;92.50;;;;;;4961721;29;1117;-66
2022/12/04 14:00:32;;;;;;;;;;;4.50;92.60;;;;;;4956084;29;1083;-67
2022/12/04 14:03:04;;;;;;;;;;;4.50;92.50;;;;;;4956742;28;1370;-66
2022/12/04 14:05:33;;;;;;;;;;;4.40;92.90;;;;;;4960030;29;1075;-67
2022/12/04 14:08:05;;;;;;;;;;;4.50;92.80;;;;;;4958206;29;1113;-66
2022/12/04 14:10:36;;;;;;;;;;;4.50;92.60;;;;;;4955668;29;999;-66
2022/12/04 14:13:05;;;;;;;;;;;4.50;93.00;;;;;;4954413;28;2243;-66
2022/12/04 14:15:34;;;;;;;;;;;4.50;93.00;;;;;;4955081;29;1039;-67
2022/12/04 14:18:04;;;;;;;;;;;4.50;93.10;;;;;;4954860;29;1081;-67
2022/12/04 14:20:33;;;;;;;;;;;4.60;92.80;;;;;;4954421;29;1071;-69
2022/12/04 14:23:07;;;;;;;;;;;4.70;92.80;;;;;;4955074;28;1321;-65
2022/12/04 14:25:36;;;;;;;;;;;4.70;92.90;;;;;;4955113;29;1086;-66
2022/12/04 14:28:14;;;;;;;;;;;4.70;92.90;;;;;;4954809;29;1060;-67
2022/12/04 14:30:43;;;;;;;;;;;4.70;93.10;;;;;;4953077;29;1566;-67
2022/12/04 14:33:17;;;;;;;;;;;4.60;93.20;;;;;;4954332;28;1903;-67
2022/12/04 14:35:47;;;;;;;;;;;4.60;93.00;;;;;;4955092;29;986;-66
2022/12/04 14:38:16;;;;;;;;;;;4.70;93.30;;;;;;4955849;29;1102;-67
2022/12/04 14:40:45;;;;;;;;;;;4.70;93.40;;;;;;4953589;29;1142;-67
2022/12/04 14:43:16;;;;;;;;;;;4.50;93.80;;;;;;4953804;28;1465;-67
2022/12/04 14:45:46;;;;;;;;;;;4.70;93.80;;;;;;4953974;29;1145;-67
2022/12/04 14:48:23;;;;;;;;;;;4.70;93.60;;;;;;4954113;29;1103;-66
2022/12/04 14:50:55;;;;;;;;;;;4.70;93.60;;;;;;4954542;29;1150;-67
2022/12/04 14:53:29;;;;;;;;;;;4.60;93.80;;;;;;4953790;28;1997;-68
2022/12/04 14:56:05;;;;;;;;;;;4.60;94.00;;;;;;4953879;29;1284;-65
2022/12/04 14:58:37;;;;;;;;;;;4.50;94.20;;;;;;4953962;29;1069;-67
2022/12/04 15:01:06;;;;;;;;;;;4.60;94.30;;;;;;4955018;29;1087;-68
2022/12/04 15:03:36;;;;;;;;;;;4.60;94.60;;;;;;4954708;28;1356;-68
2022/12/04 15:06:05;;;;;;;;;;;4.50;94.80;;;;;;4954257;29;1026;-68
2022/12/04 15:08:33;;;;;;;;;;;4.60;94.80;;;;;;4954031;29;1685;-68
2022/12/04 15:13:47;;;;;;;;;;;4.50;95.00;;;;;;4954068;28;1989;-69
2022/12/04 15:16:17;;;;;;;;;;;4.40;95.00;;;;;;4952086;29;1114;-69
2022/12/04 15:18:56;;;;;;;;;;;4.60;95.10;;;;;;4955014;29;1651;-68
2022/12/04 15:21:24;;;;;;;;;;;4.50;95.50;;;;;;4954672;29;1103;-69
2022/12/04 15:23:52;;;;;;;;;;;4.40;95.70;;;;;;4954659;28;1574;-68